sensor_id;sensor_type;location;lat;lon;timestamp;temperature;humidity
17174;DHT22;8702;48.130;-1.696;2023-02-27T00:00:14;3.30;95.80
17174;DHT22;8702;48.130;-1.696;2023-02-27T00:02:42;3.40;95.80
17174;DHT22;8702;48.130;-1.696;2023-02-27T00:05:10;3.30;95.90
17174;DHT22;8702;48.130;-1.696;2023-02-27T00:07:37;3.30;95.90
17174;DHT22;8702;48.130;-1.696;2023-02-27T00:10:07;3.30;96.10
17174;DHT22;8702;48.130;-1.696;2023-02-27T00:12:35;3.20;96.30
17174;DHT22;8702;48.130;-1.696;2023-02-27T00:15:04;3.20;96.50
17174;DHT22;8702;48.130;-1.696;2023-02-27T00:17:32;3.20;96.80
17174;DHT22;8702;48.130;-1.696;2023-02-27T00:19:59;3.20;96.90
17174;DHT22;8702;48.130;-1.696;2023-02-27T00:22:26;3.20;96.60
17174;DHT22;8702;48.130;-1.696;2023-02-27T00:24:53;3.20;96.60
17174;DHT22;8702;48.130;-1.696;2023-02-27T00:27:21;3.20;96.80
17174;DHT22;8702;48.130;-1.696;2023-02-27T00:29:48;3.20;96.80
17174;DHT22;8702;48.130;-1.696;2023-02-27T00:32:15;3.20;96.80
17174;DHT22;8702;48.130;-1.696;2023-02-27T00:34:42;3.10;97.00
17174;DHT22;8702;48.130;-1.696;2023-02-27T00:37:09;3.10;97.10
17174;DHT22;8702;48.130;-1.696;2023-02-27T00:39:36;3.20;97.20
17174;DHT22;8702;48.130;-1.696;2023-02-27T00:42:03;3.20;97.30
17174;DHT22;8702;48.130;-1.696;2023-02-27T00:44:31;3.20;97.30
17174;DHT22;8702;48.130;-1.696;2023-02-27T00:46:58;3.10;97.40
17174;DHT22;8702;48.130;-1.696;2023-02-27T00:49:25;3.10;97.60
17174;DHT22;8702;48.130;-1.696;2023-02-27T00:51:52;3.00;97.50
17174;DHT22;8702;48.130;-1.696;2023-02-27T00:54:19;3.00;97.80
17174;DHT22;8702;48.130;-1.696;2023-02-27T00:56:46;3.00;97.80
17174;DHT22;8702;48.130;-1.696;2023-02-27T00:59:13;3.00;97.70
17174;DHT22;8702;48.130;-1.696;2023-02-27T01:01:42;3.10;97.70
17174;DHT22;8702;48.130;-1.696;2023-02-27T01:04:09;3.00;98.00
17174;DHT22;8702;48.130;-1.696;2023-02-27T01:06:36;3.00;98.20
17174;DHT22;8702;48.130;-1.696;2023-02-27T01:09:03;3.00;97.90
17174;DHT22;8702;48.130;-1.696;2023-02-27T01:11:30;3.00;97.90
17174;DHT22;8702;48.130;-1.696;2023-02-27T01:13:57;3.00;98.00
17174;DHT22;8702;48.130;-1.696;2023-02-27T01:16:24;3.00;98.00
17174;DHT22;8702;48.130;-1.696;2023-02-27T01:18:52;2.90;98.30
17174;DHT22;8702;48.130;-1.696;2023-02-27T01:21:19;2.90;98.20
17174;DHT22;8702;48.130;-1.696;2023-02-27T01:23:46;2.90;98.30
17174;DHT22;8702;48.130;-1.696;2023-02-27T01:26:13;2.90;98.30
17174;DHT22;8702;48.130;-1.696;2023-02-27T01:28:40;2.90;98.30
17174;DHT22;8702;48.130;-1.696;2023-02-27T01:31:07;2.90;98.30
17174;DHT22;8702;48.130;-1.696;2023-02-27T01:33:34;2.90;98.40
17174;DHT22;8702;48.130;-1.696;2023-02-27T01:36:03;2.90;98.30
17174;DHT22;8702;48.130;-1.696;2023-02-27T01:38:30;2.90;98.40
17174;DHT22;8702;48.130;-1.696;2023-02-27T01:40:57;2.90;98.30
17174;DHT22;8702;48.130;-1.696;2023-02-27T01:43:25;2.90;98.40
17174;DHT22;8702;48.130;-1.696;2023-02-27T01:45:52;3.00;98.30
17174;DHT22;8702;48.130;-1.696;2023-02-27T01:48:23;3.00;98.30
17174;DHT22;8702;48.130;-1.696;2023-02-27T01:50:55;3.00;98.50
17174;DHT22;8702;48.130;-1.696;2023-02-27T01:53:25;2.90;98.50
17174;DHT22;8702;48.130;-1.696;2023-02-27T01:55:55;3.00;98.30
17174;DHT22;8702;48.130;-1.696;2023-02-27T01:58:24;3.00;98.60
17174;DHT22;8702;48.130;-1.696;2023-02-27T02:00:52;2.90;98.60
17174;DHT22;8702;48.130;-1.696;2023-02-27T02:03:24;2.90;98.70
17174;DHT22;8702;48.130;-1.696;2023-02-27T02:05:56;2.90;98.70
17174;DHT22;8702;48.130;-1.696;2023-02-27T02:08:26;2.90;98.80
17174;DHT22;8702;48.130;-1.696;2023-02-27T02:10:54;2.90;98.80
17174;DHT22;8702;48.130;-1.696;2023-02-27T02:13:23;3.00;98.80
17174;DHT22;8702;48.130;-1.696;2023-02-27T02:16:00;2.90;98.80
17174;DHT22;8702;48.130;-1.696;2023-02-27T02:18:36;2.90;98.90
17174;DHT22;8702;48.130;-1.696;2023-02-27T02:27:27;2.70;99.30
17174;DHT22;8702;48.130;-1.696;2023-02-27T02:30:26;2.70;99.70
17174;DHT22;8702;48.130;-1.696;2023-02-27T02:36:39;2.70;99.60
17174;DHT22;8702;48.130;-1.696;2023-02-27T02:39:45;2.80;99.60
17174;DHT22;8702;48.130;-1.696;2023-02-27T02:42:20;2.70;99.70
17174;DHT22;8702;48.130;-1.696;2023-02-27T02:44:57;2.70;99.60
17174;DHT22;8702;48.130;-1.696;2023-02-27T02:47:34;2.70;99.80
17174;DHT22;8702;48.130;-1.696;2023-02-27T02:50:11;2.70;99.90
17174;DHT22;8702;48.130;-1.696;2023-02-27T02:52:45;2.70;99.90
17174;DHT22;8702;48.130;-1.696;2023-02-27T02:55:21;2.70;99.90
17174;DHT22;8702;48.130;-1.696;2023-02-27T02:57:54;2.60;99.90
17174;DHT22;8702;48.130;-1.696;2023-02-27T03:00:26;2.60;99.90
17174;DHT22;8702;48.130;-1.696;2023-02-27T03:02:57;2.60;99.90
17174;DHT22;8702;48.130;-1.696;2023-02-27T03:05:30;2.60;99.90
17174;DHT22;8702;48.130;-1.696;2023-02-27T03:08:01;2.60;99.90
17174;DHT22;8702;48.130;-1.696;2023-02-27T03:10:33;2.60;99.90
17174;DHT22;8702;48.130;-1.696;2023-02-27T03:13:05;2.60;99.90
17174;DHT22;8702;48.130;-1.696;2023-02-27T03:15:37;2.60;99.90
17174;DHT22;8702;48.130;-1.696;2023-02-27T03:18:08;2.60;99.90
17174;DHT22;8702;48.130;-1.696;2023-02-27T03:20:46;2.60;99.90
17174;DHT22;8702;48.130;-1.696;2023-02-27T03:23:18;2.60;99.90
17174;DHT22;8702;48.130;-1.696;2023-02-27T03:25:49;2.60;99.90
17174;DHT22;8702;48.130;-1.696;2023-02-27T03:28:20;2.60;99.90
17174;DHT22;8702;48.130;-1.696;2023-02-27T03:30:52;2.60;99.90
17174;DHT22;8702;48.130;-1.696;2023-02-27T03:33:24;2.60;99.90
17174;DHT22;8702;48.130;-1.696;2023-02-27T03:35:58;2.60;99.90
17174;DHT22;8702;48.130;-1.696;2023-02-27T03:38:33;2.70;99.90
17174;DHT22;8702;48.130;-1.696;2023-02-27T03:41:08;2.80;99.90
17174;DHT22;8702;48.130;-1.696;2023-02-27T03:43:43;2.80;99.90
17174;DHT22;8702;48.130;-1.696;2023-02-27T03:46:15;2.70;99.90
17174;DHT22;8702;48.130;-1.696;2023-02-27T03:48:43;2.70;99.90
17174;DHT22;8702;48.130;-1.696;2023-02-27T03:51:11;2.70;99.90
17174;DHT22;8702;48.130;-1.696;2023-02-27T03:53:44;2.70;99.80
17174;DHT22;8702;48.130;-1.696;2023-02-27T03:56:13;2.60;99.90
17174;DHT22;8702;48.130;-1.696;2023-02-27T03:58:42;2.60;99.80
17174;DHT22;8702;48.130;-1.696;2023-02-27T04:01:09;2.60;99.90
17174;DHT22;8702;48.130;-1.696;2023-02-27T04:03:42;2.60;99.80
17174;DHT22;8702;48.130;-1.696;2023-02-27T04:06:11;2.60;99.70
17174;DHT22;8702;48.130;-1.696;2023-02-27T04:09:02;2.60;99.60
17174;DHT22;8702;48.130;-1.696;2023-02-27T04:11:40;2.60;99.70
17174;DHT22;8702;48.130;-1.696;2023-02-27T04:14:26;2.50;99.70
17174;DHT22;8702;48.130;-1.696;2023-02-27T04:17:08;2.60;99.70
17174;DHT22;8702;48.130;-1.696;2023-02-27T04:22:31;2.50;99.80
17174;DHT22;8702;48.130;-1.696;2023-02-27T04:25:10;2.50;99.70
17174;DHT22;8702;48.130;-1.696;2023-02-27T04:27:47;2.50;99.80
17174;DHT22;8702;48.130;-1.696;2023-02-27T04:30:25;2.50;99.80
17174;DHT22;8702;48.130;-1.696;2023-02-27T04:32:56;2.50;99.70
17174;DHT22;8702;48.130;-1.696;2023-02-27T04:35:32;2.60;99.60
17174;DHT22;8702;48.130;-1.696;2023-02-27T04:38:03;2.60;99.50
17174;DHT22;8702;48.130;-1.696;2023-02-27T04:40:37;2.60;99.60
17174;DHT22;8702;48.130;-1.696;2023-02-27T04:43:08;2.60;99.60
17174;DHT22;8702;48.130;-1.696;2023-02-27T04:45:38;2.60;99.50
17174;DHT22;8702;48.130;-1.696;2023-02-27T04:48:10;2.60;99.50
17174;DHT22;8702;48.130;-1.696;2023-02-27T04:50:43;2.60;99.50
17174;DHT22;8702;48.130;-1.696;2023-02-27T04:53:14;2.60;99.50
17174;DHT22;8702;48.130;-1.696;2023-02-27T04:55:46;2.60;99.60
17174;DHT22;8702;48.130;-1.696;2023-02-27T04:58:20;2.60;99.60
17174;DHT22;8702;48.130;-1.696;2023-02-27T05:00:52;2.60;99.60
17174;DHT22;8702;48.130;-1.696;2023-02-27T05:03:23;2.60;99.60
17174;DHT22;8702;48.130;-1.696;2023-02-27T05:05:54;2.60;99.70
17174;DHT22;8702;48.130;-1.696;2023-02-27T05:08:28;2.60;99.50
17174;DHT22;8702;48.130;-1.696;2023-02-27T05:10:58;2.60;99.50
17174;DHT22;8702;48.130;-1.696;2023-02-27T05:13:32;2.50;99.60
17174;DHT22;8702;48.130;-1.696;2023-02-27T05:16:05;2.60;99.50
17174;DHT22;8702;48.130;-1.696;2023-02-27T05:18:34;2.50;99.60
17174;DHT22;8702;48.130;-1.696;2023-02-27T05:21:12;2.50;99.60
17174;DHT22;8702;48.130;-1.696;2023-02-27T05:23:44;2.40;99.70
17174;DHT22;8702;48.130;-1.696;2023-02-27T05:26:16;2.40;99.70
17174;DHT22;8702;48.130;-1.696;2023-02-27T05:28:50;2.50;99.70
17174;DHT22;8702;48.130;-1.696;2023-02-27T05:31:24;2.50;99.70
17174;DHT22;8702;48.130;-1.696;2023-02-27T05:33:56;2.50;99.70
17174;DHT22;8702;48.130;-1.696;2023-02-27T05:36:29;2.50;99.70
17174;DHT22;8702;48.130;-1.696;2023-02-27T05:38:59;2.50;99.70
17174;DHT22;8702;48.130;-1.696;2023-02-27T05:41:31;2.40;99.80
17174;DHT22;8702;48.130;-1.696;2023-02-27T05:44:04;2.40;99.90
17174;DHT22;8702;48.130;-1.696;2023-02-27T05:46:37;2.30;99.90
17174;DHT22;8702;48.130;-1.696;2023-02-27T05:49:08;2.30;99.90
17174;DHT22;8702;48.130;-1.696;2023-02-27T05:51:39;2.30;99.90
17174;DHT22;8702;48.130;-1.696;2023-02-27T05:54:17;2.20;99.90
17174;DHT22;8702;48.130;-1.696;2023-02-27T05:56:48;2.10;99.90
17174;DHT22;8702;48.130;-1.696;2023-02-27T05:59:22;2.10;99.90
17174;DHT22;8702;48.130;-1.696;2023-02-27T06:01:51;2.10;99.90
17174;DHT22;8702;48.130;-1.696;2023-02-27T06:04:18;2.10;99.90
17174;DHT22;8702;48.130;-1.696;2023-02-27T06:06:46;2.10;99.90
17174;DHT22;8702;48.130;-1.696;2023-02-27T06:09:13;2.10;99.90
17174;DHT22;8702;48.130;-1.696;2023-02-27T06:11:41;2.10;99.90
17174;DHT22;8702;48.130;-1.696;2023-02-27T06:14:08;2.10;99.90
17174;DHT22;8702;48.130;-1.696;2023-02-27T06:16:36;2.10;99.90
17174;DHT22;8702;48.130;-1.696;2023-02-27T06:19:04;2.00;99.90
17174;DHT22;8702;48.130;-1.696;2023-02-27T06:21:31;2.00;99.90
17174;DHT22;8702;48.130;-1.696;2023-02-27T06:23:58;2.00;99.90
17174;DHT22;8702;48.130;-1.696;2023-02-27T06:26:25;2.00;99.90
17174;DHT22;8702;48.130;-1.696;2023-02-27T06:28:52;2.00;99.90
17174;DHT22;8702;48.130;-1.696;2023-02-27T06:31:19;1.90;99.90
17174;DHT22;8702;48.130;-1.696;2023-02-27T06:33:47;1.90;99.90
17174;DHT22;8702;48.130;-1.696;2023-02-27T06:36:14;1.80;99.90
17174;DHT22;8702;48.130;-1.696;2023-02-27T06:38:41;2.00;99.90
17174;DHT22;8702;48.130;-1.696;2023-02-27T06:41:08;1.80;99.90
17174;DHT22;8702;48.130;-1.696;2023-02-27T06:43:35;1.90;99.90
17174;DHT22;8702;48.130;-1.696;2023-02-27T06:46:02;1.90;99.90
17174;DHT22;8702;48.130;-1.696;2023-02-27T06:48:29;1.90;99.90
17174;DHT22;8702;48.130;-1.696;2023-02-27T06:50:58;1.80;99.90
17174;DHT22;8702;48.130;-1.696;2023-02-27T06:53:25;1.80;99.90
17174;DHT22;8702;48.130;-1.696;2023-02-27T06:55:52;1.80;99.90
17174;DHT22;8702;48.130;-1.696;2023-02-27T06:58:19;1.80;99.90
17174;DHT22;8702;48.130;-1.696;2023-02-27T07:00:46;1.90;99.90
17174;DHT22;8702;48.130;-1.696;2023-02-27T07:03:13;1.80;99.90
17174;DHT22;8702;48.130;-1.696;2023-02-27T07:05:40;1.80;99.90
17174;DHT22;8702;48.130;-1.696;2023-02-27T07:08:09;1.80;99.90
17174;DHT22;8702;48.130;-1.696;2023-02-27T07:10:36;1.70;99.90
17174;DHT22;8702;48.130;-1.696;2023-02-27T07:13:03;1.80;99.90
17174;DHT22;8702;48.130;-1.696;2023-02-27T07:15:30;1.80;99.90
17174;DHT22;8702;48.130;-1.696;2023-02-27T07:17:57;1.80;99.90
17174;DHT22;8702;48.130;-1.696;2023-02-27T07:20:24;1.80;99.90
17174;DHT22;8702;48.130;-1.696;2023-02-27T07:22:51;1.70;99.90
17174;DHT22;8702;48.130;-1.696;2023-02-27T07:25:20;1.80;99.90
17174;DHT22;8702;48.130;-1.696;2023-02-27T07:27:46;1.90;99.90
17174;DHT22;8702;48.130;-1.696;2023-02-27T07:30:15;1.80;99.90
17174;DHT22;8702;48.130;-1.696;2023-02-27T07:32:43;1.90;99.90
17174;DHT22;8702;48.130;-1.696;2023-02-27T07:35:12;2.00;99.90
17174;DHT22;8702;48.130;-1.696;2023-02-27T07:37:39;2.00;99.90
17174;DHT22;8702;48.130;-1.696;2023-02-27T07:40:07;2.00;99.90
17174;DHT22;8702;48.130;-1.696;2023-02-27T07:42:36;2.00;99.90
17174;DHT22;8702;48.130;-1.696;2023-02-27T07:45:03;2.10;99.90
17174;DHT22;8702;48.130;-1.696;2023-02-27T07:47:30;2.10;99.90
17174;DHT22;8702;48.130;-1.696;2023-02-27T07:49:57;2.20;99.90
17174;DHT22;8702;48.130;-1.696;2023-02-27T07:52:24;2.20;99.90
17174;DHT22;8702;48.130;-1.696;2023-02-27T07:54:51;2.20;99.90
17174;DHT22;8702;48.130;-1.696;2023-02-27T07:57:18;2.10;99.90
17174;DHT22;8702;48.130;-1.696;2023-02-27T07:59:46;2.20;99.90
17174;DHT22;8702;48.130;-1.696;2023-02-27T08:02:14;2.20;99.90
17174;DHT22;8702;48.130;-1.696;2023-02-27T08:04:40;2.20;99.90
17174;DHT22;8702;48.130;-1.696;2023-02-27T08:07:07;2.20;99.90
17174;DHT22;8702;48.130;-1.696;2023-02-27T08:09:34;2.20;99.90
17174;DHT22;8702;48.130;-1.696;2023-02-27T08:12:01;2.20;99.90
17174;DHT22;8702;48.130;-1.696;2023-02-27T08:14:29;2.20;99.90
17174;DHT22;8702;48.130;-1.696;2023-02-27T08:16:58;2.30;99.90
17174;DHT22;8702;48.130;-1.696;2023-02-27T08:19:25;2.30;99.90
17174;DHT22;8702;48.130;-1.696;2023-02-27T08:21:52;2.40;99.90
17174;DHT22;8702;48.130;-1.696;2023-02-27T08:24:19;2.40;99.90
17174;DHT22;8702;48.130;-1.696;2023-02-27T08:26:46;2.40;99.90
17174;DHT22;8702;48.130;-1.696;2023-02-27T08:29:13;2.40;99.90
17174;DHT22;8702;48.130;-1.696;2023-02-27T08:31:40;2.40;99.90
17174;DHT22;8702;48.130;-1.696;2023-02-27T08:34:08;2.50;99.90
17174;DHT22;8702;48.130;-1.696;2023-02-27T08:36:35;2.50;99.90
17174;DHT22;8702;48.130;-1.696;2023-02-27T08:39:03;2.50;99.60
17174;DHT22;8702;48.130;-1.696;2023-02-27T08:41:30;2.50;99.50
17174;DHT22;8702;48.130;-1.696;2023-02-27T08:43:56;2.60;99.40
17174;DHT22;8702;48.130;-1.696;2023-02-27T08:46:23;2.60;99.20
17174;DHT22;8702;48.130;-1.696;2023-02-27T08:48:50;2.60;99.10
17174;DHT22;8702;48.130;-1.696;2023-02-27T08:51:18;2.80;99.30
17174;DHT22;8702;48.130;-1.696;2023-02-27T08:53:45;2.80;98.80
17174;DHT22;8702;48.130;-1.696;2023-02-27T08:56:12;2.80;98.70
17174;DHT22;8702;48.130;-1.696;2023-02-27T08:58:39;2.80;98.40
17174;DHT22;8702;48.130;-1.696;2023-02-27T09:01:06;2.80;98.50
17174;DHT22;8702;48.130;-1.696;2023-02-27T09:03:33;2.90;98.40
17174;DHT22;8702;48.130;-1.696;2023-02-27T09:06:01;2.90;98.20
17174;DHT22;8702;48.130;-1.696;2023-02-27T09:08:31;3.00;97.80
17174;DHT22;8702;48.130;-1.696;2023-02-27T09:10:58;3.00;98.00
17174;DHT22;8702;48.130;-1.696;2023-02-27T09:13:25;3.00;97.50
17174;DHT22;8702;48.130;-1.696;2023-02-27T09:15:53;3.10;97.90
17174;DHT22;8702;48.130;-1.696;2023-02-27T09:18:20;3.10;97.40
17174;DHT22;8702;48.130;-1.696;2023-02-27T09:20:48;3.10;97.40
17174;DHT22;8702;48.130;-1.696;2023-02-27T09:23:15;3.20;97.30
17174;DHT22;8702;48.130;-1.696;2023-02-27T09:25:45;3.10;97.30
17174;DHT22;8702;48.130;-1.696;2023-02-27T09:28:12;3.20;97.50
17174;DHT22;8702;48.130;-1.696;2023-02-27T09:30:39;3.30;97.20
17174;DHT22;8702;48.130;-1.696;2023-02-27T09:33:06;3.30;97.10
17174;DHT22;8702;48.130;-1.696;2023-02-27T09:35:33;3.40;97.10
17174;DHT22;8702;48.130;-1.696;2023-02-27T09:38:00;3.40;96.50
17174;DHT22;8702;48.130;-1.696;2023-02-27T09:40:29;3.40;96.60
17174;DHT22;8702;48.130;-1.696;2023-02-27T09:43:00;3.50;96.30
17174;DHT22;8702;48.130;-1.696;2023-02-27T09:45:29;3.50;96.30
17174;DHT22;8702;48.130;-1.696;2023-02-27T09:48:05;3.50;95.90
17174;DHT22;8702;48.130;-1.696;2023-02-27T09:50:37;3.50;95.90
17174;DHT22;8702;48.130;-1.696;2023-02-27T09:53:10;3.60;95.70
17174;DHT22;8702;48.130;-1.696;2023-02-27T09:55:39;3.60;95.40
17174;DHT22;8702;48.130;-1.696;2023-02-27T09:58:25;3.70;95.80
17174;DHT22;8702;48.130;-1.696;2023-02-27T10:00:58;3.70;94.90
17174;DHT22;8702;48.130;-1.696;2023-02-27T10:03:54;3.70;93.70
17174;DHT22;8702;48.130;-1.696;2023-02-27T10:06:25;3.70;94.00
17174;DHT22;8702;48.130;-1.696;2023-02-27T10:09:03;3.80;94.10
17174;DHT22;8702;48.130;-1.696;2023-02-27T10:11:39;3.90;93.60
17174;DHT22;8702;48.130;-1.696;2023-02-27T10:14:20;3.90;93.30
17174;DHT22;8702;48.130;-1.696;2023-02-27T10:16:50;3.90;93.40
17174;DHT22;8702;48.130;-1.696;2023-02-27T10:19:25;4.00;93.80
17174;DHT22;8702;48.130;-1.696;2023-02-27T10:21:53;4.00;93.40
17174;DHT22;8702;48.130;-1.696;2023-02-27T10:24:24;4.10;93.10
17174;DHT22;8702;48.130;-1.696;2023-02-27T10:26:54;4.10;93.20
17174;DHT22;8702;48.130;-1.696;2023-02-27T10:29:28;4.10;92.20
17174;DHT22;8702;48.130;-1.696;2023-02-27T10:31:59;4.10;92.50
17174;DHT22;8702;48.130;-1.696;2023-02-27T10:34:28;4.20;92.40
17174;DHT22;8702;48.130;-1.696;2023-02-27T10:36:59;4.20;92.60
17174;DHT22;8702;48.130;-1.696;2023-02-27T10:39:27;4.30;92.20
17174;DHT22;8702;48.130;-1.696;2023-02-27T10:41:58;4.30;92.30
17174;DHT22;8702;48.130;-1.696;2023-02-27T10:44:30;4.40;91.90
17174;DHT22;8702;48.130;-1.696;2023-02-27T10:46:57;4.40;91.90
17174;DHT22;8702;48.130;-1.696;2023-02-27T10:49:24;4.40;92.20
17174;DHT22;8702;48.130;-1.696;2023-02-27T10:52:06;4.50;92.20
17174;DHT22;8702;48.130;-1.696;2023-02-27T10:54:33;4.50;91.80
17174;DHT22;8702;48.130;-1.696;2023-02-27T10:57:06;4.60;91.80
17174;DHT22;8702;48.130;-1.696;2023-02-27T10:59:50;4.60;91.60
17174;DHT22;8702;48.130;-1.696;2023-02-27T11:02:24;4.60;91.40
17174;DHT22;8702;48.130;-1.696;2023-02-27T11:04:52;4.60;91.40
17174;DHT22;8702;48.130;-1.696;2023-02-27T11:07:29;4.60;91.30
17174;DHT22;8702;48.130;-1.696;2023-02-27T11:10:15;4.70;91.20
17174;DHT22;8702;48.130;-1.696;2023-02-27T11:12:57;4.70;91.50
17174;DHT22;8702;48.130;-1.696;2023-02-27T11:15:27;4.80;91.90
17174;DHT22;8702;48.130;-1.696;2023-02-27T11:18:01;4.90;91.50
17174;DHT22;8702;48.130;-1.696;2023-02-27T11:20:43;5.00;91.20
17174;DHT22;8702;48.130;-1.696;2023-02-27T11:23:17;5.10;91.00
17174;DHT22;8702;48.130;-1.696;2023-02-27T11:25:45;5.10;91.00
17174;DHT22;8702;48.130;-1.696;2023-02-27T11:28:21;5.10;90.70
17174;DHT22;8702;48.130;-1.696;2023-02-27T11:30:57;5.10;90.70
17174;DHT22;8702;48.130;-1.696;2023-02-27T11:33:26;5.10;90.40
17174;DHT22;8702;48.130;-1.696;2023-02-27T11:35:55;5.20;90.90
17174;DHT22;8702;48.130;-1.696;2023-02-27T11:38:23;5.20;91.20
17174;DHT22;8702;48.130;-1.696;2023-02-27T11:40:53;5.20;91.50
17174;DHT22;8702;48.130;-1.696;2023-02-27T11:43:22;5.30;91.20
17174;DHT22;8702;48.130;-1.696;2023-02-27T11:45:53;5.40;91.20
17174;DHT22;8702;48.130;-1.696;2023-02-27T11:48:24;5.40;91.00
17174;DHT22;8702;48.130;-1.696;2023-02-27T11:51:16;5.40;90.70
17174;DHT22;8702;48.130;-1.696;2023-02-27T11:54:11;5.60;91.20
17174;DHT22;8702;48.130;-1.696;2023-02-27T11:56:43;5.70;90.50
17174;DHT22;8702;48.130;-1.696;2023-02-27T11:59:16;5.60;91.00
17174;DHT22;8702;48.130;-1.696;2023-02-27T12:01:51;5.70;91.00
17174;DHT22;8702;48.130;-1.696;2023-02-27T12:04:25;5.80;90.80
17174;DHT22;8702;48.130;-1.696;2023-02-27T12:06:57;5.80;90.00
17174;DHT22;8702;48.130;-1.696;2023-02-27T12:09:34;5.70;90.10
17174;DHT22;8702;48.130;-1.696;2023-02-27T12:12:08;5.70;90.00
17174;DHT22;8702;48.130;-1.696;2023-02-27T12:14:44;5.70;90.30
17174;DHT22;8702;48.130;-1.696;2023-02-27T12:17:18;5.80;89.40
17174;DHT22;8702;48.130;-1.696;2023-02-27T12:19:59;5.80;88.50
17174;DHT22;8702;48.130;-1.696;2023-02-27T12:22:30;5.80;89.40
17174;DHT22;8702;48.130;-1.696;2023-02-27T12:25:03;5.90;89.50
17174;DHT22;8702;48.130;-1.696;2023-02-27T12:27:37;5.80;89.00
17174;DHT22;8702;48.130;-1.696;2023-02-27T12:30:14;5.90;89.80
17174;DHT22;8702;48.130;-1.696;2023-02-27T12:32:43;5.90;89.90
17174;DHT22;8702;48.130;-1.696;2023-02-27T12:35:17;5.90;90.00
17174;DHT22;8702;48.130;-1.696;2023-02-27T12:37:45;6.10;89.40
17174;DHT22;8702;48.130;-1.696;2023-02-27T12:40:14;6.10;89.80
17174;DHT22;8702;48.130;-1.696;2023-02-27T12:43:21;6.10;89.30
17174;DHT22;8702;48.130;-1.696;2023-02-27T12:46:06;6.30;88.90
17174;DHT22;8702;48.130;-1.696;2023-02-27T12:48:57;6.20;87.10
17174;DHT22;8702;48.130;-1.696;2023-02-27T12:51:39;6.20;87.60
17174;DHT22;8702;48.130;-1.696;2023-02-27T12:54:29;6.30;87.40
17174;DHT22;8702;48.130;-1.696;2023-02-27T12:57:12;6.30;87.50
17174;DHT22;8702;48.130;-1.696;2023-02-27T12:59:52;6.40;87.70
17174;DHT22;8702;48.130;-1.696;2023-02-27T13:02:43;6.40;87.10
17174;DHT22;8702;48.130;-1.696;2023-02-27T13:05:27;6.50;86.80
17174;DHT22;8702;48.130;-1.696;2023-02-27T13:08:04;6.50;85.50
17174;DHT22;8702;48.130;-1.696;2023-02-27T13:10:35;6.50;85.70
17174;DHT22;8702;48.130;-1.696;2023-02-27T13:13:10;6.60;86.10
17174;DHT22;8702;48.130;-1.696;2023-02-27T13:15:44;6.70;84.60
17174;DHT22;8702;48.130;-1.696;2023-02-27T13:18:30;6.70;84.70
17174;DHT22;8702;48.130;-1.696;2023-02-27T13:21:01;6.80;83.20
17174;DHT22;8702;48.130;-1.696;2023-02-27T13:23:41;6.80;82.50
17174;DHT22;8702;48.130;-1.696;2023-02-27T13:26:17;6.90;83.10
17174;DHT22;8702;48.130;-1.696;2023-02-27T13:28:46;7.10;84.20
17174;DHT22;8702;48.130;-1.696;2023-02-27T13:31:18;7.20;85.50
17174;DHT22;8702;48.130;-1.696;2023-02-27T13:33:53;7.30;84.20
17174;DHT22;8702;48.130;-1.696;2023-02-27T13:36:24;7.30;82.70
17174;DHT22;8702;48.130;-1.696;2023-02-27T13:38:55;7.30;82.50
17174;DHT22;8702;48.130;-1.696;2023-02-27T13:41:46;7.40;83.50
17174;DHT22;8702;48.130;-1.696;2023-02-27T13:44:46;7.50;83.30
17174;DHT22;8702;48.130;-1.696;2023-02-27T13:47:39;7.60;82.50
17174;DHT22;8702;48.130;-1.696;2023-02-27T13:53:16;7.60;83.20
17174;DHT22;8702;48.130;-1.696;2023-02-27T13:55:45;7.60;82.90
17174;DHT22;8702;48.130;-1.696;2023-02-27T13:58:20;7.70;83.10
17174;DHT22;8702;48.130;-1.696;2023-02-27T14:00:55;7.90;82.10
17174;DHT22;8702;48.130;-1.696;2023-02-27T14:03:25;8.00;80.00
17174;DHT22;8702;48.130;-1.696;2023-02-27T14:05:56;7.90;79.70
17174;DHT22;8702;48.130;-1.696;2023-02-27T14:08:25;8.00;80.90
17174;DHT22;8702;48.130;-1.696;2023-02-27T14:10:58;8.00;79.40
17174;DHT22;8702;48.130;-1.696;2023-02-27T14:13:58;8.00;79.30
17174;DHT22;8702;48.130;-1.696;2023-02-27T14:16:57;8.20;79.80
17174;DHT22;8702;48.130;-1.696;2023-02-27T14:19:52;8.20;78.70
17174;DHT22;8702;48.130;-1.696;2023-02-27T14:25:36;8.50;78.40
17174;DHT22;8702;48.130;-1.696;2023-02-27T14:28:13;8.50;78.60
17174;DHT22;8702;48.130;-1.696;2023-02-27T14:30:48;8.70;79.00
17174;DHT22;8702;48.130;-1.696;2023-02-27T14:33:21;8.90;78.00
17174;DHT22;8702;48.130;-1.696;2023-02-27T14:35:56;9.00;76.90
17174;DHT22;8702;48.130;-1.696;2023-02-27T14:38:25;9.00;76.00
17174;DHT22;8702;48.130;-1.696;2023-02-27T14:43:54;9.00;74.20
17174;DHT22;8702;48.130;-1.696;2023-02-27T14:46:25;9.00;75.30
17174;DHT22;8702;48.130;-1.696;2023-02-27T14:48:54;9.10;75.30
17174;DHT22;8702;48.130;-1.696;2023-02-27T14:51:22;9.20;75.80
17174;DHT22;8702;48.130;-1.696;2023-02-27T14:54:00;9.20;75.50
17174;DHT22;8702;48.130;-1.696;2023-02-27T14:56:28;9.30;76.10
17174;DHT22;8702;48.130;-1.696;2023-02-27T14:58:56;9.50;78.10
17174;DHT22;8702;48.130;-1.696;2023-02-27T15:01:25;9.50;75.80
17174;DHT22;8702;48.130;-1.696;2023-02-27T15:03:55;9.60;75.80
17174;DHT22;8702;48.130;-1.696;2023-02-27T15:06:29;9.60;76.20
17174;DHT22;8702;48.130;-1.696;2023-02-27T15:09:00;9.70;76.20
17174;DHT22;8702;48.130;-1.696;2023-02-27T15:11:27;9.90;75.50
17174;DHT22;8702;48.130;-1.696;2023-02-27T15:13:58;9.80;73.80
17174;DHT22;8702;48.130;-1.696;2023-02-27T15:16:32;9.70;74.20
17174;DHT22;8702;48.130;-1.696;2023-02-27T15:19:03;9.70;73.80
17174;DHT22;8702;48.130;-1.696;2023-02-27T15:21:32;9.80;73.80
17174;DHT22;8702;48.130;-1.696;2023-02-27T15:24:05;9.90;72.40
17174;DHT22;8702;48.130;-1.696;2023-02-27T15:26:36;9.90;72.40
17174;DHT22;8702;48.130;-1.696;2023-02-27T15:29:07;9.80;72.40
17174;DHT22;8702;48.130;-1.696;2023-02-27T15:31:34;9.80;72.50
17174;DHT22;8702;48.130;-1.696;2023-02-27T15:34:02;9.90;71.80
17174;DHT22;8702;48.130;-1.696;2023-02-27T15:36:31;9.90;72.10
17174;DHT22;8702;48.130;-1.696;2023-02-27T15:39:13;9.80;71.90
17174;DHT22;8702;48.130;-1.696;2023-02-27T15:41:41;9.80;72.10
17174;DHT22;8702;48.130;-1.696;2023-02-27T15:44:11;9.90;72.40
17174;DHT22;8702;48.130;-1.696;2023-02-27T15:46:39;9.80;71.60
17174;DHT22;8702;48.130;-1.696;2023-02-27T15:49:08;9.90;72.10
17174;DHT22;8702;48.130;-1.696;2023-02-27T15:51:36;10.00;72.00
17174;DHT22;8702;48.130;-1.696;2023-02-27T15:54:03;10.30;72.80
17174;DHT22;8702;48.130;-1.696;2023-02-27T15:56:32;10.40;71.40
17174;DHT22;8702;48.130;-1.696;2023-02-27T15:59:01;10.60;71.10
17174;DHT22;8702;48.130;-1.696;2023-02-27T16:01:32;10.70;70.20
17174;DHT22;8702;48.130;-1.696;2023-02-27T16:04:02;11.10;89.70
17174;DHT22;8702;48.130;-1.696;2023-02-27T16:06:32;11.50;68.90
17174;DHT22;8702;48.130;-1.696;2023-02-27T16:29:32;12.30;90.60
17174;DHT22;8702;48.130;-1.696;2023-02-27T16:32:00;12.00;94.30
17174;DHT22;8702;48.130;-1.696;2023-02-27T16:42:01;10.70;98.50
17174;DHT22;8702;48.130;-1.696;2023-02-27T17:16:42;8.90;80.00
17174;DHT22;8702;48.130;-1.696;2023-02-27T17:19:09;8.90;80.80
17174;DHT22;8702;48.130;-1.696;2023-02-27T17:21:36;8.70;81.10
17174;DHT22;8702;48.130;-1.696;2023-02-27T17:24:03;8.60;81.30
17174;DHT22;8702;48.130;-1.696;2023-02-27T17:26:32;8.30;81.70
17174;DHT22;8702;48.130;-1.696;2023-02-27T17:28:59;8.30;82.10
17174;DHT22;8702;48.130;-1.696;2023-02-27T17:31:28;8.20;82.50
17174;DHT22;8702;48.130;-1.696;2023-02-27T17:33:54;8.10;82.60